sensor_id;sensor_type;location;lat;lon;timestamp;P1;durP1;ratioP1;P2;durP2;ratioP2
56760;SDS011;42633;44.494;11.356;2023-04-15T00:01:57;13.82;;;2.60;;
56760;SDS011;42633;44.494;11.356;2023-04-15T00:05:02;14.65;;;2.40;;
56760;SDS011;42633;44.494;11.356;2023-04-15T00:08:07;9.43;;;1.75;;
56760;SDS011;42633;44.494;11.356;2023-04-15T00:11:13;17.08;;;2.58;;
56760;SDS011;42633;44.494;11.356;2023-04-15T00:14:17;14.25;;;2.53;;
56760;SDS011;42633;44.494;11.356;2023-04-15T00:17:22;29.20;;;4.07;;
56760;SDS011;42633;44.494;11.356;2023-04-15T00:20:26;12.32;;;2.83;;
56760;SDS011;42633;44.494;11.356;2023-04-15T00:23:30;9.95;;;2.53;;
56760;SDS011;42633;44.494;11.356;2023-04-15T00:26:34;14.73;;;2.80;;
56760;SDS011;42633;44.494;11.356;2023-04-15T00:29:38;13.40;;;2.80;;
56760;SDS011;42633;44.494;11.356;2023-04-15T00:32:42;13.02;;;2.17;;
56760;SDS011;42633;44.494;11.356;2023-04-15T00:35:47;10.02;;;2.13;;
56760;SDS011;42633;44.494;11.356;2023-04-15T00:38:53;11.23;;;2.23;;
56760;SDS011;42633;44.494;11.356;2023-04-15T00:41:57;13.20;;;2.63;;
56760;SDS011;42633;44.494;11.356;2023-04-15T00:45:02;11.40;;;2.00;;
56760;SDS011;42633;44.494;11.356;2023-04-15T00:48:06;10.70;;;1.92;;
56760;SDS011;42633;44.494;11.356;2023-04-15T00:51:12;9.90;;;2.40;;
56760;SDS011;42633;44.494;11.356;2023-04-15T00:54:18;9.73;;;2.08;;
56760;SDS011;42633;44.494;11.356;2023-04-15T00:57:26;9.52;;;1.85;;
56760;SDS011;42633;44.494;11.356;2023-04-15T01:00:32;8.60;;;2.28;;
56760;SDS011;42633;44.494;11.356;2023-04-15T01:03:37;7.43;;;2.00;;
56760;SDS011;42633;44.494;11.356;2023-04-15T01:06:41;10.43;;;1.98;;
56760;SDS011;42633;44.494;11.356;2023-04-15T01:09:47;9.55;;;2.55;;
56760;SDS011;42633;44.494;11.356;2023-04-15T01:12:52;7.43;;;1.73;;
56760;SDS011;42633;44.494;11.356;2023-04-15T01:15:56;9.02;;;1.67;;
56760;SDS011;42633;44.494;11.356;2023-04-15T01:19:01;5.93;;;1.80;;
56760;SDS011;42633;44.494;11.356;2023-04-15T01:22:06;5.22;;;1.55;;
56760;SDS011;42633;44.494;11.356;2023-04-15T01:25:16;8.52;;;1.70;;
56760;SDS011;42633;44.494;11.356;2023-04-15T01:28:23;9.57;;;1.63;;
56760;SDS011;42633;44.494;11.356;2023-04-15T01:31:27;12.23;;;1.92;;
56760;SDS011;42633;44.494;11.356;2023-04-15T01:34:32;7.75;;;2.05;;
56760;SDS011;42633;44.494;11.356;2023-04-15T01:37:55;5.25;;;1.63;;
56760;SDS011;42633;44.494;11.356;2023-04-15T01:41:08;13.07;;;2.00;;
56760;SDS011;42633;44.494;11.356;2023-04-15T01:44:15;5.18;;;1.80;;
56760;SDS011;42633;44.494;11.356;2023-04-15T01:47:22;10.80;;;2.00;;
56760;SDS011;42633;44.494;11.356;2023-04-15T01:50:28;8.30;;;2.28;;
56760;SDS011;42633;44.494;11.356;2023-04-15T01:53:34;10.77;;;2.85;;
56760;SDS011;42633;44.494;11.356;2023-04-15T01:56:40;9.48;;;2.08;;
56760;SDS011;42633;44.494;11.356;2023-04-15T01:59:46;7.07;;;2.45;;
56760;SDS011;42633;44.494;11.356;2023-04-15T02:02:53;12.32;;;2.47;;
56760;SDS011;42633;44.494;11.356;2023-04-15T02:05:59;8.80;;;2.53;;
56760;SDS011;42633;44.494;11.356;2023-04-15T02:09:06;8.05;;;2.38;;
56760;SDS011;42633;44.494;11.356;2023-04-15T02:12:12;6.63;;;1.90;;
56760;SDS011;42633;44.494;11.356;2023-04-15T02:15:18;6.85;;;1.90;;
56760;SDS011;42633;44.494;11.356;2023-04-15T02:18:25;5.93;;;1.83;;
56760;SDS011;42633;44.494;11.356;2023-04-15T02:21:31;6.43;;;1.23;;
56760;SDS011;42633;44.494;11.356;2023-04-15T02:24:37;4.32;;;1.02;;
56760;SDS011;42633;44.494;11.356;2023-04-15T02:27:44;3.75;;;0.98;;
56760;SDS011;42633;44.494;11.356;2023-04-15T02:30:50;3.07;;;1.37;;
56760;SDS011;42633;44.494;11.356;2023-04-15T02:33:58;3.63;;;0.80;;
56760;SDS011;42633;44.494;11.356;2023-04-15T02:37:05;3.42;;;0.85;;
56760;SDS011;42633;44.494;11.356;2023-04-15T02:40:14;6.10;;;1.60;;
56760;SDS011;42633;44.494;11.356;2023-04-15T02:43:19;3.65;;;0.90;;
56760;SDS011;42633;44.494;11.356;2023-04-15T02:46:25;3.13;;;0.80;;
56760;SDS011;42633;44.494;11.356;2023-04-15T02:49:32;3.40;;;0.98;;
56760;SDS011;42633;44.494;11.356;2023-04-15T02:52:39;3.03;;;0.60;;
56760;SDS011;42633;44.494;11.356;2023-04-15T02:55:49;1.77;;;0.50;;
56760;SDS011;42633;44.494;11.356;2023-04-15T02:58:55;1.88;;;0.60;;
56760;SDS011;42633;44.494;11.356;2023-04-15T03:02:02;2.20;;;0.40;;
56760;SDS011;42633;44.494;11.356;2023-04-15T03:05:11;2.25;;;0.63;;
56760;SDS011;42633;44.494;11.356;2023-04-15T03:08:22;2.80;;;0.95;;
56760;SDS011;42633;44.494;11.356;2023-04-15T03:11:28;6.18;;;1.02;;
56760;SDS011;42633;44.494;11.356;2023-04-15T03:14:34;1.42;;;0.55;;
56760;SDS011;42633;44.494;11.356;2023-04-15T03:17:40;3.85;;;0.70;;
56760;SDS011;42633;44.494;11.356;2023-04-15T03:20:46;0.82;;;0.40;;
56760;SDS011;42633;44.494;11.356;2023-04-15T03:23:52;1.60;;;0.60;;
56760;SDS011;42633;44.494;11.356;2023-04-15T03:26:58;1.27;;;0.45;;
56760;SDS011;42633;44.494;11.356;2023-04-15T03:30:05;1.75;;;0.60;;
56760;SDS011;42633;44.494;11.356;2023-04-15T03:33:15;2.83;;;0.50;;
56760;SDS011;42633;44.494;11.356;2023-04-15T03:36:24;2.88;;;0.40;;
56760;SDS011;42633;44.494;11.356;2023-04-15T03:39:29;1.45;;;0.40;;
56760;SDS011;42633;44.494;11.356;2023-04-15T03:42:36;1.10;;;0.60;;
56760;SDS011;42633;44.494;11.356;2023-04-15T03:45:41;1.90;;;0.43;;
56760;SDS011;42633;44.494;11.356;2023-04-15T03:48:48;1.27;;;0.50;;
56760;SDS011;42633;44.494;11.356;2023-04-15T03:51:55;2.10;;;0.50;;
56760;SDS011;42633;44.494;11.356;2023-04-15T03:55:01;4.25;;;0.30;;
56760;SDS011;42633;44.494;11.356;2023-04-15T03:58:07;2.80;;;0.40;;
56760;SDS011;42633;44.494;11.356;2023-04-15T04:01:16;0.50;;;0.40;;
56760;SDS011;42633;44.494;11.356;2023-04-15T04:04:22;2.08;;;0.60;;
56760;SDS011;42633;44.494;11.356;2023-04-15T04:07:27;4.00;;;0.50;;
56760;SDS011;42633;44.494;11.356;2023-04-15T04:10:35;1.08;;;0.40;;
56760;SDS011;42633;44.494;11.356;2023-04-15T04:16:46;2.30;;;0.40;;
56760;SDS011;42633;44.494;11.356;2023-04-15T04:19:51;2.45;;;0.88;;
56760;SDS011;42633;44.494;11.356;2023-04-15T04:22:57;0.90;;;0.25;;
56760;SDS011;42633;44.494;11.356;2023-04-15T04:26:03;3.47;;;0.65;;
56760;SDS011;42633;44.494;11.356;2023-04-15T04:29:09;2.58;;;0.45;;
56760;SDS011;42633;44.494;11.356;2023-04-15T04:32:14;2.70;;;0.65;;
56760;SDS011;42633;44.494;11.356;2023-04-15T04:35:20;2.03;;;0.60;;
56760;SDS011;42633;44.494;11.356;2023-04-15T04:38:26;2.47;;;0.52;;
56760;SDS011;42633;44.494;11.356;2023-04-15T04:41:33;1.80;;;0.73;;
56760;SDS011;42633;44.494;11.356;2023-04-15T04:47:45;1.23;;;0.52;;
56760;SDS011;42633;44.494;11.356;2023-04-15T04:50:51;1.02;;;0.38;;
56760;SDS011;42633;44.494;11.356;2023-04-15T04:53:57;0.82;;;0.40;;
56760;SDS011;42633;44.494;11.356;2023-04-15T04:57:03;2.10;;;0.70;;
56760;SDS011;42633;44.494;11.356;2023-04-15T05:00:08;3.90;;;1.05;;
56760;SDS011;42633;44.494;11.356;2023-04-15T05:03:15;1.83;;;0.60;;
56760;SDS011;42633;44.494;11.356;2023-04-15T05:06:20;2.08;;;0.40;;
56760;SDS011;42633;44.494;11.356;2023-04-15T05:09:26;2.47;;;0.43;;
56760;SDS011;42633;44.494;11.356;2023-04-15T05:12:31;7.20;;;0.82;;
56760;SDS011;42633;44.494;11.356;2023-04-15T05:15:37;1.85;;;0.45;;
56760;SDS011;42633;44.494;11.356;2023-04-15T05:18:45;1.55;;;0.60;;
56760;SDS011;42633;44.494;11.356;2023-04-15T05:21:50;1.35;;;0.40;;
56760;SDS011;42633;44.494;11.356;2023-04-15T05:24:57;1.83;;;0.50;;
56760;SDS011;42633;44.494;11.356;2023-04-15T05:31:14;1.48;;;0.55;;
56760;SDS011;42633;44.494;11.356;2023-04-15T05:34:20;2.70;;;0.50;;
56760;SDS011;42633;44.494;11.356;2023-04-15T05:37:26;4.28;;;0.57;;
56760;SDS011;42633;44.494;11.356;2023-04-15T05:40:32;3.03;;;0.70;;
56760;SDS011;42633;44.494;11.356;2023-04-15T05:43:38;5.97;;;1.35;;
56760;SDS011;42633;44.494;11.356;2023-04-15T05:46:44;2.60;;;0.32;;
56760;SDS011;42633;44.494;11.356;2023-04-15T05:49:50;1.88;;;0.55;;
56760;SDS011;42633;44.494;11.356;2023-04-15T05:52:55;3.47;;;0.70;;
56760;SDS011;42633;44.494;11.356;2023-04-15T05:56:01;1.92;;;0.60;;
56760;SDS011;42633;44.494;11.356;2023-04-15T05:59:07;1.75;;;0.60;;
56760;SDS011;42633;44.494;11.356;2023-04-15T06:02:13;2.28;;;0.85;;
56760;SDS011;42633;44.494;11.356;2023-04-15T06:05:18;4.07;;;0.70;;
56760;SDS011;42633;44.494;11.356;2023-04-15T06:08:24;2.78;;;0.82;;
56760;SDS011;42633;44.494;11.356;2023-04-15T06:11:30;2.05;;;0.57;;
56760;SDS011;42633;44.494;11.356;2023-04-15T06:14:38;1.92;;;0.50;;
56760;SDS011;42633;44.494;11.356;2023-04-15T06:17:44;3.55;;;0.70;;
56760;SDS011;42633;44.494;11.356;2023-04-15T06:20:50;2.53;;;0.63;;
56760;SDS011;42633;44.494;11.356;2023-04-15T06:23:58;3.03;;;0.82;;
56760;SDS011;42633;44.494;11.356;2023-04-15T06:27:07;2.78;;;0.68;;
56760;SDS011;42633;44.494;11.356;2023-04-15T06:30:13;4.45;;;0.70;;
56760;SDS011;42633;44.494;11.356;2023-04-15T06:33:18;1.63;;;0.95;;
56760;SDS011;42633;44.494;11.356;2023-04-15T06:36:24;2.78;;;0.95;;
56760;SDS011;42633;44.494;11.356;2023-04-15T06:39:30;2.10;;;0.50;;
56760;SDS011;42633;44.494;11.356;2023-04-15T06:42:36;3.80;;;0.80;;
56760;SDS011;42633;44.494;11.356;2023-04-15T06:45:42;1.88;;;0.73;;
56760;SDS011;42633;44.494;11.356;2023-04-15T06:48:47;6.05;;;0.82;;
56760;SDS011;42633;44.494;11.356;2023-04-15T06:51:53;3.92;;;0.68;;
56760;SDS011;42633;44.494;11.356;2023-04-15T06:55:01;3.88;;;0.60;;
56760;SDS011;42633;44.494;11.356;2023-04-15T06:58:07;2.83;;;1.00;;
56760;SDS011;42633;44.494;11.356;2023-04-15T07:01:12;2.10;;;0.70;;
56760;SDS011;42633;44.494;11.356;2023-04-15T07:04:18;1.42;;;0.65;;
56760;SDS011;42633;44.494;11.356;2023-04-15T07:07:24;5.60;;;0.70;;
56760;SDS011;42633;44.494;11.356;2023-04-15T07:10:30;2.42;;;0.63;;
56760;SDS011;42633;44.494;11.356;2023-04-15T07:13:36;3.30;;;0.60;;
56760;SDS011;42633;44.494;11.356;2023-04-15T07:16:42;2.03;;;0.82;;
56760;SDS011;42633;44.494;11.356;2023-04-15T07:19:48;4.72;;;0.57;;
56760;SDS011;42633;44.494;11.356;2023-04-15T07:22:53;5.45;;;1.08;;
56760;SDS011;42633;44.494;11.356;2023-04-15T07:26:04;2.38;;;0.55;;
56760;SDS011;42633;44.494;11.356;2023-04-15T07:32:16;1.05;;;0.60;;
56760;SDS011;42633;44.494;11.356;2023-04-15T07:35:21;1.58;;;0.40;;
56760;SDS011;42633;44.494;11.356;2023-04-15T07:38:27;2.88;;;0.60;;
56760;SDS011;42633;44.494;11.356;2023-04-15T07:41:33;1.45;;;0.60;;
56760;SDS011;42633;44.494;11.356;2023-04-15T07:44:39;1.85;;;0.63;;
56760;SDS011;42633;44.494;11.356;2023-04-15T07:47:44;3.17;;;0.80;;
56760;SDS011;42633;44.494;11.356;2023-04-15T07:50:50;2.47;;;0.68;;
56760;SDS011;42633;44.494;11.356;2023-04-15T07:53:56;1.55;;;0.63;;
56760;SDS011;42633;44.494;11.356;2023-04-15T07:57:12;3.15;;;0.70;;
56760;SDS011;42633;44.494;11.356;2023-04-15T08:00:49;2.05;;;0.60;;
56760;SDS011;42633;44.494;11.356;2023-04-15T08:03:55;2.13;;;0.85;;
56760;SDS011;42633;44.494;11.356;2023-04-15T08:07:02;4.30;;;0.80;;
56760;SDS011;42633;44.494;11.356;2023-04-15T08:10:09;2.45;;;0.70;;
56760;SDS011;42633;44.494;11.356;2023-04-15T08:13:24;2.97;;;0.63;;
56760;SDS011;42633;44.494;11.356;2023-04-15T08:16:44;2.50;;;0.60;;
56760;SDS011;42633;44.494;11.356;2023-04-15T08:19:50;10.27;;;1.08;;
56760;SDS011;42633;44.494;11.356;2023-04-15T08:22:56;1.92;;;0.90;;
56760;SDS011;42633;44.494;11.356;2023-04-15T08:26:02;3.03;;;0.95;;
56760;SDS011;42633;44.494;11.356;2023-04-15T08:29:07;2.30;;;0.77;;
56760;SDS011;42633;44.494;11.356;2023-04-15T08:32:14;2.55;;;0.93;;
56760;SDS011;42633;44.494;11.356;2023-04-15T08:35:20;3.75;;;0.90;;
56760;SDS011;42633;44.494;11.356;2023-04-15T08:38:26;3.03;;;1.00;;
56760;SDS011;42633;44.494;11.356;2023-04-15T08:41:33;2.15;;;0.70;;
56760;SDS011;42633;44.494;11.356;2023-04-15T08:44:45;1.85;;;0.70;;
56760;SDS011;42633;44.494;11.356;2023-04-15T08:47:53;2.28;;;0.70;;
56760;SDS011;42633;44.494;11.356;2023-04-15T08:51:04;3.38;;;0.88;;
56760;SDS011;42633;44.494;11.356;2023-04-15T08:54:13;3.40;;;0.80;;
56760;SDS011;42633;44.494;11.356;2023-04-15T08:57:20;5.30;;;1.17;;
56760;SDS011;42633;44.494;11.356;2023-04-15T09:00:28;2.28;;;0.65;;
56760;SDS011;42633;44.494;11.356;2023-04-15T09:03:36;2.55;;;0.90;;
56760;SDS011;42633;44.494;11.356;2023-04-15T09:06:44;3.70;;;1.02;;
56760;SDS011;42633;44.494;11.356;2023-04-15T09:09:50;5.03;;;1.20;;
56760;SDS011;42633;44.494;11.356;2023-04-15T09:12:56;6.28;;;1.20;;
56760;SDS011;42633;44.494;11.356;2023-04-15T09:16:02;9.07;;;1.23;;
56760;SDS011;42633;44.494;11.356;2023-04-15T09:19:22;5.35;;;1.20;;
56760;SDS011;42633;44.494;11.356;2023-04-15T09:22:32;3.45;;;0.77;;
56760;SDS011;42633;44.494;11.356;2023-04-15T09:25:38;4.07;;;1.17;;
56760;SDS011;42633;44.494;11.356;2023-04-15T09:28:47;3.97;;;1.13;;
56760;SDS011;42633;44.494;11.356;2023-04-15T09:31:53;6.15;;;1.33;;
56760;SDS011;42633;44.494;11.356;2023-04-15T09:35:09;5.55;;;1.50;;
56760;SDS011;42633;44.494;11.356;2023-04-15T09:38:17;5.32;;;1.90;;
56760;SDS011;42633;44.494;11.356;2023-04-15T09:41:26;5.93;;;2.08;;
56760;SDS011;42633;44.494;11.356;2023-04-15T09:44:32;4.05;;;1.58;;
56760;SDS011;42633;44.494;11.356;2023-04-15T09:47:38;7.45;;;1.40;;
56760;SDS011;42633;44.494;11.356;2023-04-15T09:50:43;4.63;;;1.65;;
56760;SDS011;42633;44.494;11.356;2023-04-15T09:53:49;5.05;;;1.80;;
56760;SDS011;42633;44.494;11.356;2023-04-15T09:57:07;4.97;;;1.63;;
56760;SDS011;42633;44.494;11.356;2023-04-15T10:00:16;4.80;;;1.58;;
56760;SDS011;42633;44.494;11.356;2023-04-15T10:03:23;3.47;;;1.38;;
56760;SDS011;42633;44.494;11.356;2023-04-15T10:06:33;4.32;;;1.35;;
56760;SDS011;42633;44.494;11.356;2023-04-15T10:09:50;3.30;;;1.50;;
56760;SDS011;42633;44.494;11.356;2023-04-15T10:12:57;5.38;;;2.15;;
56760;SDS011;42633;44.494;11.356;2023-04-15T10:16:06;5.40;;;2.17;;
56760;SDS011;42633;44.494;11.356;2023-04-15T10:19:16;3.53;;;1.67;;
56760;SDS011;42633;44.494;11.356;2023-04-15T10:22:27;6.22;;;1.70;;
56760;SDS011;42633;44.494;11.356;2023-04-15T10:25:33;4.00;;;1.63;;
56760;SDS011;42633;44.494;11.356;2023-04-15T10:28:41;6.28;;;2.70;;
56760;SDS011;42633;44.494;11.356;2023-04-15T10:31:49;5.65;;;1.45;;
56760;SDS011;42633;44.494;11.356;2023-04-15T10:34:55;6.47;;;2.75;;
56760;SDS011;42633;44.494;11.356;2023-04-15T10:38:02;4.93;;;2.45;;
56760;SDS011;42633;44.494;11.356;2023-04-15T10:41:27;6.60;;;1.63;;
56760;SDS011;42633;44.494;11.356;2023-04-15T10:44:38;2.08;;;1.20;;
56760;SDS011;42633;44.494;11.356;2023-04-15T10:47:56;8.25;;;2.00;;
56760;SDS011;42633;44.494;11.356;2023-04-15T10:51:02;4.93;;;1.90;;
56760;SDS011;42633;44.494;11.356;2023-04-15T10:54:31;6.70;;;2.10;;
56760;SDS011;42633;44.494;11.356;2023-04-15T10:57:38;6.90;;;2.15;;
56760;SDS011;42633;44.494;11.356;2023-04-15T11:04:00;8.15;;;2.92;;
56760;SDS011;42633;44.494;11.356;2023-04-15T11:07:07;8.30;;;2.15;;
56760;SDS011;42633;44.494;11.356;2023-04-15T11:13:22;4.70;;;1.83;;
56760;SDS011;42633;44.494;11.356;2023-04-15T11:16:30;8.13;;;2.30;;
56760;SDS011;42633;44.494;11.356;2023-04-15T11:19:36;7.40;;;2.00;;
56760;SDS011;42633;44.494;11.356;2023-04-15T11:22:58;8.20;;;2.15;;
56760;SDS011;42633;44.494;11.356;2023-04-15T11:26:09;6.07;;;2.08;;
56760;SDS011;42633;44.494;11.356;2023-04-15T11:29:30;3.80;;;2.00;;
56760;SDS011;42633;44.494;11.356;2023-04-15T11:32:44;5.32;;;1.77;;
56760;SDS011;42633;44.494;11.356;2023-04-15T11:35:53;4.10;;;1.60;;
56760;SDS011;42633;44.494;11.356;2023-04-15T11:38:59;8.02;;;2.08;;
56760;SDS011;42633;44.494;11.356;2023-04-15T11:42:15;8.77;;;2.17;;
56760;SDS011;42633;44.494;11.356;2023-04-15T11:45:24;7.35;;;1.98;;
56760;SDS011;42633;44.494;11.356;2023-04-15T11:48:51;8.18;;;1.83;;
56760;SDS011;42633;44.494;11.356;2023-04-15T11:52:01;6.63;;;2.05;;
56760;SDS011;42633;44.494;11.356;2023-04-15T11:55:15;11.85;;;5.45;;
56760;SDS011;42633;44.494;11.356;2023-04-15T11:58:23;10.10;;;2.35;;
56760;SDS011;42633;44.494;11.356;2023-04-15T12:12:16;5.70;;;2.00;;
56760;SDS011;42633;44.494;11.356;2023-04-15T12:18:29;8.00;;;2.38;;
56760;SDS011;42633;44.494;11.356;2023-04-15T12:24:41;8.45;;;1.80;;
56760;SDS011;42633;44.494;11.356;2023-04-15T12:27:50;6.65;;;2.17;;
56760;SDS011;42633;44.494;11.356;2023-04-15T12:30:58;9.38;;;2.20;;
56760;SDS011;42633;44.494;11.356;2023-04-15T12:34:03;4.05;;;1.50;;
56760;SDS011;42633;44.494;11.356;2023-04-15T12:37:11;7.20;;;2.35;;
56760;SDS011;42633;44.494;11.356;2023-04-15T12:40:16;21.35;;;13.02;;
56760;SDS011;42633;44.494;11.356;2023-04-15T12:43:22;8.02;;;2.10;;
56760;SDS011;42633;44.494;11.356;2023-04-15T12:46:31;8.70;;;2.08;;
56760;SDS011;42633;44.494;11.356;2023-04-15T12:49:36;6.18;;;1.85;;
56760;SDS011;42633;44.494;11.356;2023-04-15T12:52:46;9.63;;;2.15;;
56760;SDS011;42633;44.494;11.356;2023-04-15T12:55:50;9.93;;;2.42;;
56760;SDS011;42633;44.494;11.356;2023-04-15T12:58:58;7.22;;;2.20;;
56760;SDS011;42633;44.494;11.356;2023-04-15T13:02:02;6.30;;;2.40;;
56760;SDS011;42633;44.494;11.356;2023-04-15T13:05:09;10.85;;;2.88;;
56760;SDS011;42633;44.494;11.356;2023-04-15T13:08:16;10.90;;;2.30;;
56760;SDS011;42633;44.494;11.356;2023-04-15T13:11:21;6.17;;;1.93;;
56760;SDS011;42633;44.494;11.356;2023-04-15T13:14:26;4.35;;;1.52;;
56760;SDS011;42633;44.494;11.356;2023-04-15T13:17:30;6.57;;;1.80;;
56760;SDS011;42633;44.494;11.356;2023-04-15T13:20:38;8.93;;;2.22;;
56760;SDS011;42633;44.494;11.356;2023-04-15T13:23:43;7.97;;;2.22;;
56760;SDS011;42633;44.494;11.356;2023-04-15T13:26:48;6.72;;;2.22;;
56760;SDS011;42633;44.494;11.356;2023-04-15T13:29:52;7.15;;;2.83;;
56760;SDS011;42633;44.494;11.356;2023-04-15T13:32:58;6.47;;;1.75;;
56760;SDS011;42633;44.494;11.356;2023-04-15T13:36:03;6.63;;;2.10;;
56760;SDS011;42633;44.494;11.356;2023-04-15T13:39:08;5.70;;;1.67;;
56760;SDS011;42633;44.494;11.356;2023-04-15T13:42:12;6.10;;;2.08;;
56760;SDS011;42633;44.494;11.356;2023-04-15T13:45:17;9.98;;;2.35;;
56760;SDS011;42633;44.494;11.356;2023-04-15T13:48:22;6.05;;;1.80;;
56760;SDS011;42633;44.494;11.356;2023-04-15T13:51:27;6.18;;;2.67;;
56760;SDS011;42633;44.494;11.356;2023-04-15T13:54:31;6.60;;;1.85;;
56760;SDS011;42633;44.494;11.356;2023-04-15T13:57:38;13.07;;;2.33;;
56760;SDS011;42633;44.494;11.356;2023-04-15T14:00:45;5.70;;;2.75;;
56760;SDS011;42633;44.494;11.356;2023-04-15T14:03:49;10.85;;;2.00;;
56760;SDS011;42633;44.494;11.356;2023-04-15T14:06:57;6.18;;;1.60;;
56760;SDS011;42633;44.494;11.356;2023-04-15T14:10:02;5.45;;;1.65;;
56760;SDS011;42633;44.494;11.356;2023-04-15T14:13:07;8.52;;;2.05;;
56760;SDS011;42633;44.494;11.356;2023-04-15T14:16:12;6.20;;;2.33;;
56760;SDS011;42633;44.494;11.356;2023-04-15T14:19:18;5.07;;;1.92;;
56760;SDS011;42633;44.494;11.356;2023-04-15T14:22:22;6.68;;;2.30;;
56760;SDS011;42633;44.494;11.356;2023-04-15T14:25:28;6.38;;;1.92;;
56760;SDS011;42633;44.494;11.356;2023-04-15T14:28:34;6.25;;;1.98;;
56760;SDS011;42633;44.494;11.356;2023-04-15T14:34:47;6.85;;;1.42;;
56760;SDS011;42633;44.494;11.356;2023-04-15T14:37:52;6.03;;;1.38;;
56760;SDS011;42633;44.494;11.356;2023-04-15T14:40:56;5.97;;;1.50;;
56760;SDS011;42633;44.494;11.356;2023-04-15T14:44:01;9.90;;;2.90;;
56760;SDS011;42633;44.494;11.356;2023-04-15T14:47:05;4.70;;;1.92;;
56760;SDS011;42633;44.494;11.356;2023-04-15T14:50:10;7.85;;;2.58;;
56760;SDS011;42633;44.494;11.356;2023-04-15T14:53:14;7.90;;;2.00;;
56760;SDS011;42633;44.494;11.356;2023-04-15T14:56:19;6.63;;;2.30;;
56760;SDS011;42633;44.494;11.356;2023-04-15T14:59:24;12.40;;;7.88;;
56760;SDS011;42633;44.494;11.356;2023-04-15T15:02:29;6.10;;;2.10;;
56760;SDS011;42633;44.494;11.356;2023-04-15T15:05:33;8.05;;;2.03;;
56760;SDS011;42633;44.494;11.356;2023-04-15T15:08:39;8.32;;;1.63;;
56760;SDS011;42633;44.494;11.356;2023-04-15T15:11:43;7.95;;;1.65;;
56760;SDS011;42633;44.494;11.356;2023-04-15T15:14:49;7.20;;;1.73;;
56760;SDS011;42633;44.494;11.356;2023-04-15T15:17:53;7.93;;;3.10;;
56760;SDS011;42633;44.494;11.356;2023-04-15T15:20:57;8.23;;;3.58;;
56760;SDS011;42633;44.494;11.356;2023-04-15T15:24:02;8.18;;;1.90;;
56760;SDS011;42633;44.494;11.356;2023-04-15T15:27:07;8.25;;;2.25;;
56760;SDS011;42633;44.494;11.356;2023-04-15T15:30:12;8.80;;;2.83;;
56760;SDS011;42633;44.494;11.356;2023-04-15T15:33:16;8.40;;;1.40;;
56760;SDS011;42633;44.494;11.356;2023-04-15T15:36:21;7.05;;;1.83;;
56760;SDS011;42633;44.494;11.356;2023-04-15T15:39:26;8.20;;;2.10;;
56760;SDS011;42633;44.494;11.356;2023-04-15T15:42:33;7.63;;;1.80;;
56760;SDS011;42633;44.494;11.356;2023-04-15T15:45:38;7.50;;;2.63;;
56760;SDS011;42633;44.494;11.356;2023-04-15T15:48:44;9.38;;;3.10;;
56760;SDS011;42633;44.494;11.356;2023-04-15T15:51:51;8.48;;;1.88;;
56760;SDS011;42633;44.494;11.356;2023-04-15T15:54:56;11.88;;;4.40;;
56760;SDS011;42633;44.494;11.356;2023-04-15T15:58:00;9.88;;;2.17;;
56760;SDS011;42633;44.494;11.356;2023-04-15T16:01:07;7.18;;;2.15;;
56760;SDS011;42633;44.494;11.356;2023-04-15T16:04:14;7.60;;;2.22;;
56760;SDS011;42633;44.494;11.356;2023-04-15T16:07:20;11.57;;;2.25;;
56760;SDS011;42633;44.494;11.356;2023-04-15T16:10:25;6.68;;;2.22;;
56760;SDS011;42633;44.494;11.356;2023-04-15T16:13:33;8.60;;;2.58;;
56760;SDS011;42633;44.494;11.356;2023-04-15T16:16:37;6.13;;;1.75;;
56760;SDS011;42633;44.494;11.356;2023-04-15T16:19:42;11.63;;;3.08;;
56760;SDS011;42633;44.494;11.356;2023-04-15T16:22:59;11.75;;;2.70;;
56760;SDS011;42633;44.494;11.356;2023-04-15T16:26:14;7.65;;;2.47;;
56760;SDS011;42633;44.494;11.356;2023-04-15T16:29:21;6.28;;;1.80;;
56760;SDS011;42633;44.494;11.356;2023-04-15T16:32:26;7.93;;;1.90;;
56760;SDS011;42633;44.494;11.356;2023-04-15T16:35:33;8.57;;;2.10;;
56760;SDS011;42633;44.494;11.356;2023-04-15T16:38:40;6.93;;;2.42;;
56760;SDS011;42633;44.494;11.356;2023-04-15T16:41:44;10.55;;;2.13;;
56760;SDS011;42633;44.494;11.356;2023-04-15T16:44:49;10.38;;;4.05;;
56760;SDS011;42633;44.494;11.356;2023-04-15T16:47:53;7.50;;;2.00;;
56760;SDS011;42633;44.494;11.356;2023-04-15T16:51:03;10.43;;;2.20;;
56760;SDS011;42633;44.494;11.356;2023-04-15T16:54:07;9.45;;;2.30;;
56760;SDS011;42633;44.494;11.356;2023-04-15T16:57:13;7.22;;;1.67;;
56760;SDS011;42633;44.494;11.356;2023-04-15T17:00:17;7.20;;;1.90;;
56760;SDS011;42633;44.494;11.356;2023-04-15T17:03:22;7.43;;;1.60;;
56760;SDS011;42633;44.494;11.356;2023-04-15T17:06:27;12.60;;;3.65;;
56760;SDS011;42633;44.494;11.356;2023-04-15T17:09:37;11.30;;;2.55;;
56760;SDS011;42633;44.494;11.356;2023-04-15T17:12:42;6.18;;;1.50;;
56760;SDS011;42633;44.494;11.356;2023-04-15T17:15:46;13.93;;;5.88;;
56760;SDS011;42633;44.494;11.356;2023-04-15T17:19:02;10.38;;;2.65;;
56760;SDS011;42633;44.494;11.356;2023-04-15T17:22:12;7.88;;;3.08;;
56760;SDS011;42633;44.494;11.356;2023-04-15T17:25:18;7.45;;;3.60;;
56760;SDS011;42633;44.494;11.356;2023-04-15T17:28:27;11.40;;;3.55;;
56760;SDS011;42633;44.494;11.356;2023-04-15T17:31:32;11.75;;;2.40;;
56760;SDS011;42633;44.494;11.356;2023-04-15T17:34:59;11.85;;;3.15;;
56760;SDS011;42633;44.494;11.356;2023-04-15T17:42:00;9.55;;;3.28;;
56760;SDS011;42633;44.494;11.356;2023-04-15T17:45:26;8.95;;;2.15;;
56760;SDS011;42633;44.494;11.356;2023-04-15T17:48:51;6.65;;;1.90;;
56760;SDS011;42633;44.494;11.356;2023-04-15T17:52:20;7.25;;;2.53;;
56760;SDS011;42633;44.494;11.356;2023-04-15T17:55:51;7.70;;;2.38;;
56760;SDS011;42633;44.494;11.356;2023-04-15T18:03:10;10.68;;;3.10;;
56760;SDS011;42633;44.494;11.356;2023-04-15T18:06:38;10.75;;;2.83;;
56760;SDS011;42633;44.494;11.356;2023-04-15T18:10:08;7.32;;;2.80;;
56760;SDS011;42633;44.494;11.356;2023-04-15T18:17:32;7.32;;;2.85;;
56760;SDS011;42633;44.494;11.356;2023-04-15T18:20:53;7.25;;;2.60;;
56760;SDS011;42633;44.494;11.356;2023-04-15T18:24:25;8.43;;;2.22;;
56760;SDS011;42633;44.494;11.356;2023-04-15T18:27:37;16.20;;;6.95;;
56760;SDS011;42633;44.494;11.356;2023-04-15T18:30:49;11.25;;;4.82;;
56760;SDS011;42633;44.494;11.356;2023-04-15T18:33:55;14.45;;;4.90;;
56760;SDS011;42633;44.494;11.356;2023-04-15T18:37:00;10.20;;;3.72;;
56760;SDS011;42633;44.494;11.356;2023-04-15T18:40:05;9.90;;;3.10;;
56760;SDS011;42633;44.494;11.356;2023-04-15T18:46:38;10.18;;;3.10;;
56760;SDS011;42633;44.494;11.356;2023-04-15T18:49:43;8.48;;;4.18;;
56760;SDS011;42633;44.494;11.356;2023-04-15T18:52:51;17.30;;;6.85;;
56760;SDS011;42633;44.494;11.356;2023-04-15T18:55:55;18.10;;;9.13;;
56760;SDS011;42633;44.494;11.356;2023-04-15T18:59:01;14.57;;;3.75;;
56760;SDS011;42633;44.494;11.356;2023-04-15T19:02:06;21.25;;;11.70;;
56760;SDS011;42633;44.494;11.356;2023-04-15T19:05:14;13.93;;;6.90;;
56760;SDS011;42633;44.494;11.356;2023-04-15T19:08:23;11.68;;;2.92;;
56760;SDS011;42633;44.494;11.356;2023-04-15T19:11:29;12.75;;;5.15;;
56760;SDS011;42633;44.494;11.356;2023-04-15T19:14:36;5.80;;;2.35;;
56760;SDS011;42633;44.494;11.356;2023-04-15T19:17:43;12.88;;;2.40;;
56760;SDS011;42633;44.494;11.356;2023-04-15T19:20:47;9.32;;;2.58;;
56760;SDS011;42633;44.494;11.356;2023-04-15T19:23:55;10.63;;;2.55;;
56760;SDS011;42633;44.494;11.356;2023-04-15T19:27:02;7.20;;;3.95;;